Time;durP1;ratioP1;P1;durP2;ratioP2;P2;SDS_P1;SDS_P2;PMS_P1;PMS_P2;Temp;Humidity;BMP_temperature;BMP_pressure;BME280_temperature;BME280_humidity;BME280_pressure;Samples;Min_cycle;Max_cycle;Signal;HPM_P1;HPM_P2
2023/05/24 00:01:06;;;;;;;16.53;4.90;;;;;;;10.24;100.00;102466.19;5082374;28;20553;-68
2023/05/24 00:03:33;;;;;;;11.90;4.77;;;;;;;9.97;100.00;102349.19;5100104;28;20174;-68
2023/05/24 00:05:59;;;;;;;14.50;5.00;;;;;;;10.66;100.00;102444.00;5081414;28;20451;-68
2023/05/24 00:08:25;;;;;;;22.33;5.40;;;;;;;10.21;100.00;102347.66;5100077;28;20459;-68
2023/05/24 00:10:50;;;;;;;13.13;4.70;;;;;;;10.55;100.00;102431.69;5095604;28;20436;-68
2023/05/24 00:13:16;;;;;;;14.20;4.60;;;;;;;10.34;100.00;102444.66;5092351;28;20713;-68
2023/05/24 00:15:41;;;;;;;17.30;4.30;;;;;;;9.94;100.00;102366.44;5081497;28;20218;-68
2023/05/24 00:18:07;;;;;;;13.77;4.60;;;;;;;10.31;100.00;102421.69;5100982;28;20194;-68
2023/05/24 00:20:32;;;;;;;17.70;4.33;;;;;;;10.65;100.00;102412.81;5097797;28;20207;-68
2023/05/24 00:22:58;;;;;;;19.00;4.50;;;;;;;10.48;100.00;102430.66;5097098;28;20640;-68
2023/05/24 00:25:23;;;;;;;14.87;4.60;;;;;;;10.51;100.00;102443.75;5090034;28;20698;-68
2023/05/24 00:27:48;;;;;;;13.43;4.63;;;;;;;10.39;100.00;102420.91;5099657;28;20205;-68
2023/05/24 00:30:14;;;;;;;10.50;4.50;;;;;;;10.49;100.00;102435.03;5080800;28;20571;-68
2023/05/24 00:32:39;;;;;;;21.00;5.20;;;;;;;10.55;100.00;102438.91;5100296;28;20217;-68
2023/05/24 00:35:05;;;;;;;13.53;4.50;;;;;;;10.70;100.00;102439.16;5099694;28;20301;-68
2023/05/24 00:37:31;;;;;;;18.20;5.27;;;;;;;10.66;100.00;102443.16;5099908;28;20212;-68
2023/05/24 00:39:56;;;;;;;11.83;4.20;;;;;;;10.11;100.00;102362.03;5100286;28;20566;-68
2023/05/24 00:42:22;;;;;;;12.07;4.23;;;;;;;10.75;100.00;102426.94;5081914;28;20185;-68
2023/05/24 00:44:47;;;;;;;12.20;4.00;;;;;;;10.50;100.00;102433.16;5094754;28;20693;-68
2023/05/24 00:47:13;;;;;;;11.33;3.37;;;;;;;9.93;100.00;102339.81;5074634;28;20208;-68
2023/05/24 00:49:38;;;;;;;9.37;3.90;;;;;;;10.16;100.00;102349.00;5100078;28;20259;-68
2023/05/24 00:52:05;;;;;;;12.90;3.90;;;;;;;10.12;100.00;102331.53;5076092;28;20190;-68
2023/05/24 00:54:31;;;;;;;13.27;4.10;;;;;;;10.55;100.00;102395.97;5082044;28;20601;-68
2023/05/24 00:56:56;;;;;;;16.00;4.97;;;;;;;10.05;100.00;102289.44;5097800;28;20447;-68
2023/05/24 00:59:25;;;;;;;14.83;4.60;;;;;;;10.10;100.00;102354.16;5100561;28;20186;-68
2023/05/24 01:01:51;;;;;;;14.37;4.50;;;;;;;10.23;100.00;102364.44;5099190;28;20189;-68
2023/05/24 01:04:19;;;;;;;14.47;4.03;;;;;;;10.42;100.00;102382.19;5095215;28;20435;-68
2023/05/24 01:06:59;;;;;;;10.87;4.00;;;;;;;10.75;100.00;102423.41;5093937;28;20205;-68
2023/05/24 01:09:38;;;;;;;11.17;4.10;;;;;;;10.79;100.00;102405.97;5100014;28;21068;-68
2023/05/24 01:12:33;;;;;;;15.10;4.23;;;;;;;9.45;100.00;102197.31;5099956;28;20444;-68
2023/05/24 01:15:19;;;;;;;16.90;4.57;;;;;;;10.88;100.00;102405.03;5059845;28;20443;-68
2023/05/24 01:18:04;;;;;;;16.93;3.63;;;;;;;10.92;100.00;102405.53;5075775;28;20535;-68
2023/05/24 01:20:32;;;;;;;14.60;4.00;;;;;;;10.16;100.00;102349.00;5086692;28;20805;-68
2023/05/24 01:23:14;;;;;;;11.80;3.60;;;;;;;10.75;100.00;102418.03;5073837;28;20456;-68
2023/05/24 01:26:02;;;;;;;11.37;4.40;;;;;;;11.01;100.00;102405.38;5073000;28;20527;-68
2023/05/24 01:28:30;;;;;;;13.97;4.20;;;;;;;10.78;100.00;102415.03;5095531;28;20468;-68
2023/05/24 01:30:57;;;;;;;13.70;3.13;;;;;;;10.27;100.00;102330.97;5091251;28;20556;-68
2023/05/24 01:33:23;;;;;;;11.80;4.40;;;;;;;10.75;100.00;102431.47;5097182;28;20472;-68
2023/05/24 01:35:48;;;;;;;12.00;4.53;;;;;;;10.71;100.00;102433.63;5098575;28;20479;-68
2023/05/24 01:38:14;;;;;;;20.10;4.40;;;;;;;10.29;100.00;102353.09;5097975;28;20420;-67
2023/05/24 01:40:41;;;;;;;11.80;3.93;;;;;;;10.91;100.00;102433.38;5102246;28;20189;-68
2023/05/24 01:43:26;;;;;;;15.53;4.80;;;;;;;9.84;100.00;102346.13;5095990;28;20969;-68
2023/05/24 01:46:12;;;;;;;15.67;4.30;;;;;;;10.44;100.00;102393.56;5091568;28;20489;-68
2023/05/24 01:48:57;;;;;;;14.63;3.97;;;;;;;10.82;100.00;102424.47;5076270;28;20485;-68
2023/05/24 01:51:28;;;;;;;10.20;4.03;;;;;;;10.59;100.00;102373.22;5096292;28;20575;-68
2023/05/24 01:53:57;;;;;;;12.63;4.33;;;;;;;10.04;100.00;102285.94;5080613;28;20461;-68
2023/05/24 01:56:26;;;;;;;18.13;4.87;;;;;;;10.44;100.00;102354.16;5080157;28;20456;-68
2023/05/24 01:58:53;;;;;;;16.10;4.33;;;;;;;10.92;100.00;102427.84;5080967;28;20450;-68
2023/05/24 02:01:19;;;;;;;11.77;4.07;;;;;;;10.96;100.00;102425.66;5094324;28;20439;-68
2023/05/24 02:03:45;;;;;;;10.27;4.27;;;;;;;11.08;100.00;102417.16;5074754;28;20448;-68
2023/05/24 02:06:10;;;;;;;15.90;4.97;;;;;;;11.02;100.00;102407.06;5090897;28;20881;-68
2023/05/24 02:08:36;;;;;;;14.23;4.43;;;;;;;11.14;100.00;102417.50;5086250;28;20215;-68
2023/05/24 02:11:01;;;;;;;16.10;4.97;;;;;;;10.96;100.00;102414.94;5086391;28;20212;-68
2023/05/24 02:13:27;;;;;;;12.53;3.77;;;;;;;10.33;100.00;102397.38;5090422;28;20554;-68
2023/05/24 02:15:53;;;;;;;13.60;3.67;;;;;;;10.97;100.00;102430.06;5072074;28;20707;-68
2023/05/24 02:18:19;;;;;;;11.10;3.93;;;;;;;10.64;100.00;102403.06;5076208;28;20189;-68
2023/05/24 02:20:44;;;;;;;14.53;4.17;;;;;;;10.80;100.00;102388.88;5067850;28;20831;-68
2023/05/24 02:23:10;;;;;;;14.30;4.40;;;;;;;10.82;100.00;102427.16;5074557;28;20190;-68
2023/05/24 02:25:35;;;;;;;10.10;3.53;;;;;;;10.97;100.00;102392.47;5091782;28;20217;-68
2023/05/24 02:28:00;;;;;;;15.10;3.97;;;;;;;10.05;100.00;102258.09;5094643;28;20198;-68
2023/05/24 02:30:26;;;;;;;14.97;3.80;;;;;;;11.08;100.00;102406.41;5063755;28;20408;-68
2023/05/24 02:32:52;;;;;;;15.30;4.67;;;;;;;10.18;100.00;102333.59;5096394;28;20655;-68
2023/05/24 02:35:17;;;;;;;13.53;3.60;;;;;;;10.42;100.00;102302.53;5081215;28;20224;-68
2023/05/24 02:37:43;;;;;;;13.40;3.40;;;;;;;10.65;100.00;102352.94;5097902;28;20174;-68
2023/05/24 02:40:09;;;;;;;11.20;4.20;;;;;;;10.73;100.00;102404.81;5078229;28;20194;-69
2023/05/24 02:42:34;;;;;;;13.07;4.70;;;;;;;10.54;100.00;102364.78;5097793;28;20233;-69
2023/05/24 02:45:00;;;;;;;13.03;4.40;;;;;;;10.32;100.00;102318.75;5100394;28;20459;-68
2023/05/24 02:47:25;;;;;;;9.43;3.80;;;;;;;10.72;100.00;102399.59;5098875;28;20190;-69
2023/05/24 02:49:54;;;;;;;15.73;3.60;;;;;;;10.44;100.00;102327.34;5099058;28;20250;-68
2023/05/24 02:52:21;;;;;;;10.30;3.60;;;;;;;11.03;100.00;102426.72;5101244;28;20624;-68
2023/05/24 02:54:50;;;;;;;17.87;4.27;;;;;;;10.91;100.00;102410.06;5101941;28;20909;-68
2023/05/24 02:57:16;;;;;;;8.00;3.33;;;;;;;11.04;100.00;102423.84;5102700;28;20432;-69
2023/05/24 02:59:42;;;;;;;13.40;3.63;;;;;;;10.51;100.00;102357.91;5101582;28;20495;-68
2023/05/24 03:02:07;;;;;;;16.70;4.47;;;;;;;10.28;100.00;102354.94;5083322;28;20186;-69
2023/05/24 03:04:33;;;;;;;15.60;4.30;;;;;;;10.75;100.00;102431.47;5083247;28;20989;-69
2023/05/24 03:06:58;;;;;;;14.27;4.87;;;;;;;10.76;100.00;102450.09;5096349;28;20672;-68
2023/05/24 03:09:24;;;;;;;17.20;5.20;;;;;;;10.98;100.00;102442.47;5098046;28;20233;-68
2023/05/24 03:11:51;;;;;;;13.03;4.33;;;;;;;10.27;100.00;102363.13;5080819;28;20190;-69
2023/05/24 03:14:19;;;;;;;11.53;3.73;;;;;;;10.67;100.00;102412.63;5078417;28;20682;-69
2023/05/24 03:16:45;;;;;;;13.07;4.03;;;;;;;10.88;100.00;102439.06;5080841;28;20512;-68
2023/05/24 03:19:10;;;;;;;14.37;4.53;;;;;;;10.69;100.00;102365.03;5080217;28;20454;-68
2023/05/24 03:21:36;;;;;;;13.80;3.90;;;;;;;10.44;100.00;102329.19;5102131;28;20527;-69
2023/05/24 03:24:01;;;;;;;16.40;4.30;;;;;;;10.48;100.00;102334.09;5101621;28;20178;-69
2023/05/24 03:26:27;;;;;;;13.53;4.33;;;;;;;10.76;100.00;102347.25;5095171;28;20210;-69
2023/05/24 03:28:53;;;;;;;16.13;5.27;;;;;;;10.89;100.00;102376.31;5098199;28;20201;-68
2023/05/24 03:31:25;;;;;;;14.73;4.20;;;;;;;10.48;100.00;102342.13;5082889;28;20181;-69
2023/05/24 03:33:51;;;;;;;15.97;5.40;;;;;;;10.30;100.00;102282.34;5084207;28;20466;-69
2023/05/24 03:36:16;;;;;;;22.93;5.07;;;;;;;10.61;100.00;102336.31;5081645;28;20948;-68
2023/05/24 03:38:41;;;;;;;18.20;4.53;;;;;;;11.11;100.00;102399.03;5101814;28;20173;-69
2023/05/24 03:41:07;;;;;;;14.50;4.57;;;;;;;10.11;100.00;102292.31;5101075;28;20190;-68
2023/05/24 03:43:32;;;;;;;15.10;4.00;;;;;;;10.83;100.00;102432.34;5083039;28;20171;-69
2023/05/24 03:45:58;;;;;;;13.00;4.40;;;;;;;10.48;100.00;102333.25;5082165;28;20201;-68
2023/05/24 03:48:23;;;;;;;14.20;4.40;;;;;;;10.85;100.00;102416.91;5083142;28;20209;-69
2023/05/24 03:50:49;;;;;;;13.57;4.50;;;;;;;10.65;100.00;102445.00;5100229;28;20197;-69
2023/05/24 03:53:14;;;;;;;13.10;3.80;;;;;;;10.35;100.00;102384.63;5101219;28;20247;-69
2023/05/24 03:55:39;;;;;;;25.60;7.00;;;;;;;10.66;100.00;102460.09;5096803;28;20214;-70
2023/05/24 03:58:05;;;;;;;15.70;4.50;;;;;;;10.92;100.00;102470.78;5080164;28;20178;-69
2023/05/24 04:00:30;;;;;;;12.77;3.70;;;;;;;10.74;100.00;102435.16;5100436;28;20182;-69
2023/05/24 04:02:56;;;;;;;16.00;4.13;;;;;;;10.48;100.00;102370.81;5094757;28;20190;-69
2023/05/24 04:05:25;;;;;;;12.20;4.50;;;;;;;10.97;100.00;102481.91;5097486;28;20194;-69
2023/05/24 04:07:51;;;;;;;16.27;4.60;;;;;;;10.57;100.00;102370.66;5099620;28;20205;-69
2023/05/24 04:10:17;;;;;;;12.33;4.13;;;;;;;11.06;100.00;102456.75;5099695;28;20432;-69
2023/05/24 04:12:43;;;;;;;11.20;3.63;;;;;;;10.66;100.00;102394.84;5077762;28;20190;-69
2023/05/24 04:15:13;;;;;;;12.47;4.17;;;;;;;11.26;100.00;102446.59;5092896;28;20260;-69
2023/05/24 04:17:39;;;;;;;12.50;3.70;;;;;;;11.10;100.00;102457.25;5098383;28;20487;-69
2023/05/24 04:20:05;;;;;;;16.50;4.67;;;;;;;11.30;100.00;102457.84;5099503;28;20420;-68
2023/05/24 04:22:30;;;;;;;12.40;3.80;;;;;;;11.04;100.00;102409.59;5079592;28;20640;-69
2023/05/24 04:24:56;;;;;;;14.50;5.00;;;;;;;10.79;100.00;102400.59;5096037;28;20451;-69
2023/05/24 04:27:21;;;;;;;13.13;4.00;;;;;;;11.03;100.00;102477.72;5078945;28;20197;-69
2023/05/24 04:29:48;;;;;;;17.80;4.60;;;;;;;11.14;100.00;102472.06;5096903;28;20263;-69
2023/05/24 04:32:14;;;;;;;10.20;3.67;;;;;;;11.05;100.00;102454.22;5095977;28;20185;-69
2023/05/24 04:34:41;;;;;;;14.30;3.60;;;;;;;11.09;100.00;102487.81;5099920;28;20420;-69
2023/05/24 04:37:07;;;;;;;11.13;3.80;;;;;;;10.83;100.00;102418.09;5080853;28;20524;-69
2023/05/24 04:39:32;;;;;;;14.23;3.47;;;;;;;11.25;100.00;102481.66;5097711;28;20885;-69
2023/05/24 04:41:59;;;;;;;18.37;5.10;;;;;;;11.18;100.00;102473.41;5100162;28;20575;-69
2023/05/24 04:44:25;;;;;;;15.27;4.67;;;;;;;10.71;100.00;102390.69;5076714;28;20194;-69
2023/05/24 04:46:50;;;;;;;11.57;4.50;;;;;;;11.33;100.00;102470.94;5091192;28;20464;-68
2023/05/24 04:49:16;;;;;;;16.03;4.60;;;;;;;11.38;100.00;102476.66;5080051;28;20206;-69
2023/05/24 04:51:42;;;;;;;18.03;5.40;;;;;;;10.33;100.00;102343.75;5079436;28;20184;-69
2023/05/24 04:54:07;;;;;;;12.77;4.60;;;;;;;10.77;100.00;102416.03;5081425;28;20463;-69
2023/05/24 04:56:37;;;;;;;15.80;4.40;;;;;;;11.17;100.00;102505.81;5076428;28;20199;-69
2023/05/24 04:59:12;;;;;;;12.37;4.90;;;;;;;10.61;100.00;102430.22;5076745;28;20583;-69
2023/05/24 05:01:38;;;;;;;12.80;4.10;;;;;;;11.42;100.00;102517.47;5077563;28;20455;-69
2023/05/24 05:04:03;;;;;;;14.20;4.30;;;;;;;10.96;100.00;102439.94;5078377;28;20432;-69
2023/05/24 05:06:29;;;;;;;12.27;4.40;;;;;;;11.41;100.00;102510.44;5097719;28;20448;-69
2023/05/24 05:08:54;;;;;;;16.57;4.43;;;;;;;11.04;100.00;102439.13;5079545;28;20291;-69
2023/05/24 05:11:19;;;;;;;16.77;4.60;;;;;;;10.49;100.00;102338.44;5097362;28;20197;-69
2023/05/24 05:13:45;;;;;;;11.07;4.40;;;;;;;10.90;100.00;102410.22;5095655;28;20580;-69
2023/05/24 05:16:11;;;;;;;11.53;4.80;;;;;;;11.22;100.00;102439.00;5088977;28;20269;-69
2023/05/24 05:18:37;;;;;;;18.00;4.83;;;;;;;11.57;100.00;102463.91;5087492;28;20200;-69
2023/05/24 05:21:02;;;;;;;16.67;4.10;;;;;;;11.66;100.00;102465.66;5069629;28;20485;-69
2023/05/24 05:23:29;;;;;;;19.97;4.60;;;;;;;11.24;100.00;102405.59;5086353;28;20179;-69
2023/05/24 05:25:55;;;;;;;17.20;4.80;;;;;;;11.37;100.00;102415.88;5090582;28;20220;-69
2023/05/24 05:28:20;;;;;;;15.67;4.53;;;;;;;11.06;100.00;102421.00;5087543;28;20468;-69
2023/05/24 05:30:45;;;;;;;12.90;4.03;;;;;;;11.45;100.00;102474.16;5084309;28;20654;-69
2023/05/24 05:33:11;;;;;;;11.50;3.50;;;;;;;10.91;100.00;102383.22;5085997;28;20182;-69
2023/05/24 05:35:37;;;;;;;18.87;4.90;;;;;;;10.98;100.00;102420.97;5088788;28;20286;-69
2023/05/24 05:38:02;;;;;;;12.83;4.20;;;;;;;11.23;100.00;102436.16;5089950;28;20201;-69
2023/05/24 05:40:28;;;;;;;17.93;3.80;;;;;;;11.41;100.00;102476.34;5093215;28;20186;-69
2023/05/24 05:42:53;;;;;;;14.90;4.17;;;;;;;11.47;100.00;102478.34;5075555;28;20198;-69
2023/05/24 05:45:19;;;;;;;13.73;3.43;;;;;;;11.47;100.00;102491.78;5091799;28;20197;-69
2023/05/24 05:47:44;;;;;;;20.20;5.30;;;;;;;10.75;100.00;102377.78;5069628;28;20210;-69
2023/05/24 05:50:10;;;;;;;14.50;4.30;;;;;;;11.40;100.00;102485.41;5059095;28;20544;-69
2023/05/24 05:52:35;;;;;;;17.30;3.90;;;;;;;11.60;100.00;102479.72;5088293;28;20263;-69
2023/05/24 05:55:01;;;;;;;16.80;4.80;;;;;;;11.32;100.00;102423.59;5095060;28;20192;-69
2023/05/24 05:57:26;;;;;;;9.17;3.10;;;;;;;10.86;100.00;102353.34;5094274;28;20182;-69
2023/05/24 05:59:51;;;;;;;10.50;3.23;;;;;;;11.66;100.00;102490.66;5089594;28;20532;-69
2023/05/24 06:02:23;;;;;;;11.83;3.83;;;;;;;11.57;100.00;102480.06;5096569;28;20665;-68
2023/05/24 06:04:49;;;;;;;11.03;3.70;;;;;;;11.13;100.00;102407.75;5093609;28;20178;-69
2023/05/24 06:07:14;;;;;;;13.43;3.63;;;;;;;11.63;100.00;102463.25;5090056;28;21082;-68
2023/05/24 06:09:40;;;;;;;15.60;4.27;;;;;;;11.45;100.00;102442.75;5085300;28;20246;-69
2023/05/24 06:12:05;;;;;;;14.10;3.93;;;;;;;11.26;100.00;102413.50;5093552;28;20194;-69
2023/05/24 06:14:31;;;;;;;13.13;3.70;;;;;;;11.84;100.00;102495.91;5099839;28;20178;-68
2023/05/24 06:16:57;;;;;;;12.30;3.77;;;;;;;11.51;100.00;102454.69;5077202;28;20304;-69
2023/05/24 06:19:22;;;;;;;13.30;4.20;;;;;;;11.76;100.00;102474.38;5095482;28;20179;-69
2023/05/24 06:21:49;;;;;;;13.07;3.73;;;;;;;12.01;100.00;102502.16;5090524;28;20185;-69
2023/05/24 06:24:20;;;;;;;17.10;4.40;;;;;;;11.98;100.00;102499.81;5079459;28;20170;-69
2023/05/24 06:26:50;;;;;;;9.50;3.33;;;;;;;11.38;100.00;102395.22;5071705;28;20463;-69
2023/05/24 06:29:19;;;;;;;14.43;4.53;;;;;;;11.95;100.00;102490.22;5099321;28;20888;-69
2023/05/24 06:31:46;;;;;;;16.30;4.77;;;;;;;11.59;100.00;102398.25;5075251;28;20432;-69
2023/05/24 06:34:12;;;;;;;11.53;4.10;;;;;;;12.04;100.00;102495.59;5093580;28;20495;-70
2023/05/24 06:36:41;;;;;;;13.37;4.43;;;;;;;12.00;100.00;102487.00;5061749;28;20459;-69
2023/05/24 06:39:09;;;;;;;11.33;3.43;;;;;;;11.85;100.00;102464.47;5090704;28;20522;-69
2023/05/24 06:41:34;;;;;;;10.80;3.80;;;;;;;11.52;100.00;102416.91;5089141;28;20818;-69
2023/05/24 06:44:00;;;;;;;15.87;3.93;;;;;;;11.48;100.00;102407.47;5078989;28;20523;-69
2023/05/24 06:46:25;;;;;;;13.67;3.90;;;;;;;11.97;100.00;102482.81;5074143;28;20214;-69
2023/05/24 06:48:51;;;;;;;12.30;3.97;;;;;;;12.03;100.00;102499.28;5096518;28;20194;-72
2023/05/24 06:51:16;;;;;;;9.93;3.07;;;;;;;11.70;100.00;102473.19;5100107;28;20181;-69
2023/05/24 06:53:42;;;;;;;13.23;4.20;;;;;;;11.64;100.00;102455.03;5100480;28;20640;-69
2023/05/24 06:56:08;;;;;;;12.00;3.60;;;;;;;12.06;100.00;102507.84;5101087;28;20720;-69
2023/05/24 06:58:34;;;;;;;9.73;3.60;;;;;;;12.17;100.00;102514.75;5081235;28;20185;-69
2023/05/24 07:00:59;;;;;;;11.33;4.30;;;;;;;12.23;100.00;102495.25;5095912;28;20208;-69
2023/05/24 07:03:25;;;;;;;10.90;3.67;;;;;;;12.03;100.00;102483.97;5089554;28;20185;-69
2023/05/24 07:05:51;;;;;;;19.13;3.57;;;;;;;11.68;100.00;102434.03;5077382;28;20212;-69
2023/05/24 07:08:16;;;;;;;10.73;3.37;;;;;;;12.14;100.00;102509.72;5072785;28;20582;-69
2023/05/24 07:10:43;;;;;;;11.90;3.37;;;;;;;11.88;100.00;102504.50;5091212;28;20434;-69
2023/05/24 07:13:12;;;;;;;8.37;3.10;;;;;;;11.29;100.00;102454.31;5078527;28;20197;-69
2023/05/24 07:15:40;;;;;;;13.60;4.17;;;;;;;11.24;100.00;102455.81;5074006;28;21309;-69
2023/05/24 07:18:05;;;;;;;12.20;3.53;;;;;;;11.92;100.00;102533.59;5093151;28;20419;-69
2023/05/24 07:20:31;;;;;;;8.90;3.23;;;;;;;11.42;100.00;102432.31;5078118;28;21006;-69
2023/05/24 07:22:57;;;;;;;13.83;3.73;;;;;;;12.07;100.00;102506.03;5098611;28;20265;-70
2023/05/24 07:25:23;;;;;;;9.47;3.60;;;;;;;12.07;100.00;102503.34;5093581;28;20209;-69
2023/05/24 07:27:49;;;;;;;7.47;2.80;;;;;;;11.72;100.00;102441.63;5093286;28;20210;-69
2023/05/24 07:30:15;;;;;;;9.47;3.20;;;;;;;12.17;100.00;102512.06;5075282;28;20488;-69
2023/05/24 07:32:41;;;;;;;14.00;3.67;;;;;;;12.29;100.00;102517.94;5068391;28;20442;-69
2023/05/24 07:35:07;;;;;;;7.83;3.20;;;;;;;12.28;100.00;102509.03;5094446;28;20491;-69
2023/05/24 07:37:32;;;;;;;10.97;3.13;;;;;;;12.27;100.00;102482.31;5076827;28;20188;-69
2023/05/24 07:39:58;;;;;;;11.33;3.37;;;;;;;12.55;100.00;102501.59;5075767;28;20751;-69
2023/05/24 07:42:23;;;;;;;9.07;3.10;;;;;;;12.47;100.00;102501.59;5068504;28;20188;-69
2023/05/24 07:44:49;;;;;;;10.43;2.80;;;;;;;12.69;100.00;102500.06;5093768;28;20184;-69
2023/05/24 07:47:14;;;;;;;8.00;3.40;;;;;;;12.50;100.00;102520.97;5078473;28;20178;-69
2023/05/24 07:49:40;;;;;;;11.93;4.23;;;;;;;12.55;100.00;102488.97;5096291;28;20206;-69
2023/05/24 07:52:05;;;;;;;12.47;4.13;;;;;;;12.09;100.00;102418.78;5074768;28;20182;-69
2023/05/24 07:54:31;;;;;;;6.57;2.53;;;;;;;12.68;100.00;102509.16;5096896;28;20459;-69
2023/05/24 07:56:56;;;;;;;9.37;2.93;;;;;;;12.51;100.00;102489.50;5094193;28;20314;-69
2023/05/24 07:59:22;;;;;;;11.40;2.97;;;;;;;12.14;100.00;102429.00;5092247;28;20188;-69
2023/05/24 08:01:48;;;;;;;9.17;2.93;;;;;;;12.79;100.00;102509.63;5076656;28;20190;-69
2023/05/24 08:04:13;;;;;;;9.47;3.13;;;;;;;12.36;100.00;102433.69;5088914;28;20680;-69
2023/05/24 08:06:39;;;;;;;9.07;2.90;;;;;;;12.57;100.00;102434.97;5098668;28;20197;-69
2023/05/24 08:09:07;;;;;;;11.83;3.17;;;;;;;12.34;100.00;102384.59;5079579;28;20204;-69
2023/05/24 08:11:32;;;;;;;9.43;3.17;;;;;;;12.96;100.00;102496.97;5078176;28;20198;-70
2023/05/24 08:13:58;;;;;;;8.23;3.00;;;;;;;12.48;100.00;102414.50;5076447;28;20982;-69
2023/05/24 08:16:23;;;;;;;12.40;3.63;;;;;;;12.32;100.00;102407.28;5094387;28;20209;-69
2023/05/24 08:18:49;;;;;;;14.10;4.23;;;;;;;12.90;100.00;102492.25;5075982;28;20178;-69
2023/05/24 08:21:14;;;;;;;8.97;2.57;;;;;;;12.91;100.00;102501.19;5074272;28;20194;-69
2023/05/24 08:23:40;;;;;;;10.20;3.23;;;;;;;12.32;100.00;102444.97;5087612;28;20240;-69
2023/05/24 08:26:05;;;;;;;13.17;3.57;;;;;;;12.20;100.00;102447.16;5071989;28;20202;-69
2023/05/24 08:28:31;;;;;;;11.13;3.20;;;;;;;12.70;100.00;102481.06;5085199;28;20211;-69
2023/05/24 08:30:58;;;;;;;8.80;3.43;;;;;;;12.44;100.00;102411.31;5072596;28;20174;-69
2023/05/24 08:33:23;;;;;;;9.87;2.87;;;;;;;12.59;100.00;102387.19;5072239;28;20519;-70
2023/05/24 08:35:50;;;;;;;7.73;2.37;;;;;;;13.06;100.00;102403.28;5088540;28;20538;-69
2023/05/24 08:38:15;;;;;;;8.13;2.87;;;;;;;12.91;100.00;102372.75;5085315;28;20206;-69
2023/05/24 08:40:41;;;;;;;8.90;2.77;;;;;;;13.30;100.00;102439.22;5097543;28;20501;-69
2023/05/24 08:43:10;;;;;;;7.20;2.70;;;;;;;13.32;100.00;102423.72;5078657;28;20252;-69
2023/05/24 08:45:37;;;;;;;7.93;3.47;;;;;;;12.98;100.00;102362.94;5077230;28;20443;-69
2023/05/24 08:48:05;;;;;;;7.77;3.00;;;;;;;13.07;100.00;102350.25;5096995;28;20452;-69
2023/05/24 08:50:31;;;;;;;6.67;2.57;;;;;;;13.56;100.00;102415.44;5093892;28;20436;-69
2023/05/24 08:52:58;;;;;;;8.73;2.83;;;;;;;12.71;100.00;102314.97;5096908;28;20999;-69
2023/05/24 08:55:24;;;;;;;11.00;3.90;;;;;;;12.86;100.00;102439.75;5097580;28;20541;-69
2023/05/24 08:57:50;;;;;;;10.83;3.50;;;;;;;12.89;100.00;102452.88;5091838;28;21139;-69
2023/05/24 09:00:16;;;;;;;12.87;3.63;;;;;;;12.64;100.00;102455.66;5097488;28;20531;-68
2023/05/24 09:02:44;;;;;;;11.40;3.60;;;;;;;12.01;100.00;102404.50;5079864;28;20439;-69
2023/05/24 09:05:15;;;;;;;8.03;3.27;;;;;;;12.21;100.00;102376.22;5097458;28;20813;-69
2023/05/24 09:07:43;;;;;;;8.43;2.83;;;;;;;12.13;100.00;102376.25;5080031;28;20420;-69
2023/05/24 09:10:09;;;;;;;11.53;4.30;;;;;;;11.67;100.00;102317.63;5081063;28;20786;-69
2023/05/24 09:12:39;;;;;;;13.47;3.80;;;;;;;12.46;100.00;102430.78;5095666;28;20443;-69
2023/05/24 09:15:06;;;;;;;9.23;3.90;;;;;;;12.20;100.00;102394.19;5078094;28;20452;-69
2023/05/24 09:17:33;;;;;;;9.30;3.43;;;;;;;12.27;100.00;102423.97;5090533;28;20454;-69
2023/05/24 09:19:59;;;;;;;11.07;3.60;;;;;;;12.30;100.00;102412.84;5078024;28;20463;-69
2023/05/24 09:22:27;;;;;;;14.80;3.90;;;;;;;12.34;100.00;102373.81;5092937;28;20823;-69
2023/05/24 09:24:57;;;;;;;8.93;3.17;;;;;;;12.51;100.00;102380.00;5077546;28;20214;-69
2023/05/24 09:27:22;;;;;;;10.27;3.30;;;;;;;13.22;100.00;102463.47;5088656;28;20433;-69
2023/05/24 09:29:50;;;;;;;6.83;3.33;;;;;;;13.28;100.00;102454.75;5067241;28;20906;-69
2023/05/24 09:32:16;;;;;;;9.23;2.87;;;;;;;13.09;100.00;102411.00;5072247;28;20619;-69
2023/05/24 09:34:42;;;;;;;9.10;3.30;;;;;;;13.35;100.00;102447.63;5075138;28;20435;-69
2023/05/24 09:37:16;;;;;;;11.10;3.10;;;;;;;13.07;100.00;102382.56;5072565;28;20218;-69
2023/05/24 09:39:43;;;;;;;10.13;3.40;;;;;;;13.33;100.00;102433.47;5073545;28;20531;-69
2023/05/24 09:42:13;;;;;;;9.27;3.60;;;;;;;13.00;100.00;102352.81;5092377;28;20935;-69
2023/05/24 09:44:39;;;;;;;6.83;2.70;;;;;;;12.76;100.00;102286.50;5059951;28;20846;-69
2023/05/24 09:47:04;;;;;;;10.57;3.43;;;;;;;13.22;100.00;102393.41;5092124;28;20508;-69
2023/05/24 09:49:30;;;;;;;12.23;3.20;;;;;;;12.50;100.00;102288.66;5077801;28;20254;-69
2023/05/24 09:51:56;;;;;;;12.17;3.70;;;;;;;13.37;100.00;102453.66;5093142;28;20207;-69
2023/05/24 09:54:24;;;;;;;7.03;2.40;;;;;;;12.58;100.00;102345.13;5074158;28;20439;-69
2023/05/24 09:56:50;;;;;;;9.07;3.37;;;;;;;13.06;100.00;102430.22;5071288;28;20466;-70
2023/05/24 09:59:16;;;;;;;8.77;2.60;;;;;;;13.33;100.00;102463.13;5090804;28;20814;-69
2023/05/24 10:01:41;;;;;;;10.70;3.30;;;;;;;13.41;100.00;102459.53;5075002;28;20243;-69
2023/05/24 10:04:06;;;;;;;7.67;2.73;;;;;;;13.49;100.00;102454.09;5078392;28;20835;-70
2023/05/24 10:06:36;;;;;;;11.80;2.90;;;;;;;13.06;100.00;102362.88;5097372;28;20780;-69
2023/05/24 10:09:04;;;;;;;6.43;2.70;;;;;;;13.68;100.00;102436.59;5078840;28;20194;-69
2023/05/24 10:11:31;;;;;;;7.50;2.67;;;;;;;13.50;100.00;102399.16;5097504;28;20431;-69
2023/05/24 10:13:58;;;;;;;9.07;2.80;;;;;;;12.91;100.00;102345.81;5093470;28;20472;-70
2023/05/24 10:16:23;;;;;;;17.40;3.07;;;;;;;12.88;100.00;102390.09;5076290;28;20464;-70
2023/05/24 10:18:49;;;;;;;10.33;2.87;;;;;;;13.15;100.00;102455.28;5080603;28;21012;-70
2023/05/24 10:21:18;;;;;;;9.27;3.00;;;;;;;12.92;100.00;102395.13;5079593;28;20439;-69
2023/05/24 10:23:50;;;;;;;8.83;2.80;;;;;;;12.97;100.00;102401.66;5086889;28;20190;-70
2023/05/24 10:26:16;;;;;;;8.87;2.87;;;;;;;12.98;100.00;102373.69;5096742;28;20465;-70
2023/05/24 10:28:47;;;;;;;6.40;2.83;;;;;;;13.36;100.00;102441.19;5093526;28;20481;-70
2023/05/24 10:31:16;;;;;;;10.90;2.97;;;;;;;13.69;100.00;102462.56;5088633;28;20473;-69
2023/05/24 10:33:47;;;;;;;8.57;2.60;;;;;;;13.73;100.00;102459.31;5096599;28;20587;-70
2023/05/24 10:36:14;;;;;;;11.47;2.97;;;;;;;13.79;100.00;102433.47;5076942;28;20485;-70
2023/05/24 10:38:40;;;;;;;10.60;2.70;;;;;;;13.39;100.00;102372.63;5076398;28;20443;-69
2023/05/24 10:41:07;;;;;;;9.60;2.93;;;;;;;13.99;100.00;102455.41;5093037;28;20431;-70
2023/05/24 10:43:36;;;;;;;7.00;2.40;;;;;;;13.76;100.00;102375.34;5095400;28;20436;-69
2023/05/24 10:46:06;;;;;;;9.53;2.73;;;;;;;14.15;100.00;102411.25;5078688;28;20459;-70
2023/05/24 10:48:32;;;;;;;7.70;3.17;;;;;;;13.87;100.00;102405.59;5090263;28;20509;-70
2023/05/24 10:51:00;;;;;;;8.97;3.10;;;;;;;13.94;100.00;102444.31;5079546;28;20436;-71
2023/05/24 10:53:26;;;;;;;9.10;2.80;;;;;;;14.02;100.00;102445.06;5079750;28;20439;-71
2023/05/24 10:56:05;;;;;;;7.03;3.13;;;;;;;13.93;100.00;102432.69;5076756;28;20965;-69
2023/05/24 10:58:47;;;;;;;5.87;2.57;;;;;;;13.97;100.00;102457.44;5062667;28;20431;-70
2023/05/24 11:01:23;;;;;;;6.40;2.80;;;;;;;13.37;100.00;102345.88;5097334;28;20440;-70
2023/05/24 11:03:49;;;;;;;7.73;2.60;;;;;;;14.04;100.00;102409.00;5097307;28;20947;-70
2023/05/24 11:06:14;;;;;;;6.47;2.90;;;;;;;13.53;100.00;102329.53;5097115;28;20464;-70
2023/05/24 11:08:42;;;;;;;3.57;2.10;;;;;;;14.23;100.00;102427.34;5095868;28;20213;-69
2023/05/24 11:11:09;;;;;;;5.83;2.70;;;;;;;14.28;100.00;102440.28;5078438;28;20175;-70